createdAt,value
2023-10-17T00:01:50.312Z,91.90
2023-10-17T00:04:31.960Z,92.00
2023-10-17T00:07:00.232Z,91.90
2023-10-17T00:09:27.784Z,91.90
2023-10-17T00:11:57.621Z,92.00
2023-10-17T00:14:29.181Z,92.10
2023-10-17T00:16:56.765Z,92.20
2023-10-17T00:19:27.603Z,92.10
2023-10-17T00:21:55.328Z,92.20
2023-10-17T00:24:24.647Z,92.30
2023-10-17T00:26:52.325Z,92.40
2023-10-17T00:29:19.675Z,92.40
2023-10-17T00:31:47.622Z,92.40
2023-10-17T00:34:16.334Z,92.50
2023-10-17T00:36:46.554Z,92.50
2023-10-17T00:39:17.611Z,92.60
2023-10-17T00:41:47.769Z,92.60
2023-10-17T00:44:17.139Z,92.70
2023-10-17T00:46:44.543Z,92.70
2023-10-17T00:49:11.991Z,92.70
2023-10-17T00:51:41.047Z,92.80
2023-10-17T00:54:13.104Z,92.90
2023-10-17T00:56:42.289Z,92.90
2023-10-17T00:59:09.612Z,92.90
2023-10-17T01:01:38.733Z,93.00
2023-10-17T01:04:06.994Z,93.10
2023-10-17T01:06:39.044Z,93.10
2023-10-17T01:09:08.308Z,93.40
2023-10-17T01:11:39.805Z,93.50
2023-10-17T01:14:07.491Z,93.60
2023-10-17T01:16:36.199Z,93.70
2023-10-17T01:19:06.448Z,93.80
2023-10-17T01:21:35.040Z,93.90
2023-10-17T01:24:04.622Z,94.10
2023-10-17T01:26:32.019Z,94.20
2023-10-17T01:29:01.356Z,94.20
2023-10-17T01:31:29.099Z,94.20
2023-10-17T01:33:57.162Z,94.30
2023-10-17T01:36:25.645Z,94.50
2023-10-17T01:38:56.292Z,94.50
2023-10-17T01:41:24.078Z,94.60
2023-10-17T01:43:52.046Z,94.70
2023-10-17T01:46:21.458Z,94.70
2023-10-17T01:48:50.742Z,94.80
2023-10-17T01:51:18.435Z,95.10
2023-10-17T01:53:51.671Z,95.40
2023-10-17T01:56:26.437Z,95.40
2023-10-17T01:58:56.613Z,95.50
2023-10-17T02:01:26.914Z,95.60
2023-10-17T02:03:54.769Z,95.70
2023-10-17T02:06:23.768Z,95.60
2023-10-17T02:08:52.078Z,95.80
2023-10-17T02:11:23.765Z,95.60
2023-10-17T02:13:55.023Z,95.70
2023-10-17T02:16:23.842Z,95.90
2023-10-17T02:18:51.573Z,96.10
2023-10-17T02:21:20.661Z,96.20
2023-10-17T02:23:50.781Z,96.30
2023-10-17T02:26:22.009Z,96.40
2023-10-17T02:28:51.993Z,96.50
2023-10-17T02:31:28.752Z,96.80
2023-10-17T02:33:57.826Z,96.90
2023-10-17T02:36:25.516Z,97.10
2023-10-17T02:38:53.630Z,97.30
2023-10-17T02:41:21.187Z,97.60
2023-10-17T02:43:55.108Z,97.70
2023-10-17T02:46:28.263Z,97.80
2023-10-17T02:48:56.642Z,98.00
2023-10-17T02:51:33.062Z,98.20
2023-10-17T02:54:06.604Z,98.40
2023-10-17T02:56:39.067Z,98.60
2023-10-17T02:59:08.106Z,98.70
2023-10-17T03:01:38.486Z,99.00
2023-10-17T03:04:09.919Z,99.20
2023-10-17T03:06:40.492Z,99.30
2023-10-17T03:09:11.501Z,99.40
2023-10-17T03:11:48.700Z,99.70
2023-10-17T03:14:20.976Z,99.90
2023-10-17T03:16:53.914Z,99.90
2023-10-17T03:19:27.062Z,99.90
2023-10-17T03:21:56.068Z,99.90
2023-10-17T03:24:30.755Z,99.90
2023-10-17T03:27:05.021Z,99.90
2023-10-17T03:29:36.059Z,99.90
2023-10-17T03:32:05.660Z,99.90
2023-10-17T03:34:38.518Z,99.90
2023-10-17T03:37:09.147Z,99.90
2023-10-17T03:39:53.605Z,99.90
2023-10-17T03:42:23.997Z,99.90
2023-10-17T03:44:55.527Z,99.90
2023-10-17T03:47:23.654Z,99.90
2023-10-17T03:49:55.428Z,99.90
2023-10-17T03:52:23.796Z,99.90
2023-10-17T03:54:51.120Z,99.90
2023-10-17T03:57:18.448Z,99.90
2023-10-17T03:59:53.590Z,99.90
2023-10-17T04:02:22.706Z,99.90
2023-10-17T04:04:55.334Z,99.90
2023-10-17T04:07:27.963Z,99.90
2023-10-17T04:10:15.295Z,99.90
2023-10-17T04:12:50.503Z,99.90
2023-10-17T04:15:20.438Z,99.90
2023-10-17T04:17:47.926Z,99.90
2023-10-17T04:20:17.673Z,99.90
2023-10-17T04:22:45.350Z,99.90
2023-10-17T04:25:14.971Z,99.90
2023-10-17T04:27:46.532Z,99.90
2023-10-17T04:30:22.234Z,99.90
2023-10-17T04:32:54.570Z,99.90
2023-10-17T04:35:22.005Z,99.90
2023-10-17T04:38:09.489Z,99.90
2023-10-17T04:40:38.593Z,99.90
2023-10-17T04:43:07.611Z,99.90
2023-10-17T04:45:35.169Z,99.90
2023-10-17T04:48:04.022Z,99.90
2023-10-17T04:50:42.063Z,99.90
2023-10-17T04:53:09.484Z,99.90
2023-10-17T04:55:42.155Z,99.90
2023-10-17T04:58:11.837Z,99.90
2023-10-17T05:00:52.886Z,99.90
2023-10-17T05:03:22.074Z,99.90
2023-10-17T05:06:01.678Z,99.90
2023-10-17T05:08:31.836Z,99.90
2023-10-17T05:11:00.865Z,99.90
2023-10-17T05:13:29.733Z,99.90
2023-10-17T05:15:58.639Z,99.90
2023-10-17T05:18:28.156Z,99.90
2023-10-17T05:20:57.116Z,99.90
2023-10-17T05:23:26.233Z,99.90
2023-10-17T05:25:55.267Z,99.90
2023-10-17T05:28:24.230Z,99.90
2023-10-17T05:30:53.068Z,99.90
2023-10-17T05:33:21.964Z,99.90
2023-10-17T05:35:50.790Z,99.90
2023-10-17T05:38:19.925Z,99.90
2023-10-17T05:40:48.730Z,99.90
2023-10-17T05:43:17.788Z,99.90
2023-10-17T05:45:57.669Z,99.90
2023-10-17T05:48:26.694Z,99.90
2023-10-17T05:51:02.526Z,99.90
2023-10-17T05:53:31.509Z,99.90
2023-10-17T05:56:00.505Z,99.90
2023-10-17T05:58:29.488Z,99.90
2023-10-17T06:00:58.397Z,99.90
2023-10-17T06:03:27.342Z,99.90
2023-10-17T06:05:56.720Z,99.90
2023-10-17T06:08:25.622Z,99.90
2023-10-17T06:10:58.154Z,99.90
2023-10-17T06:13:27.390Z,99.90
2023-10-17T06:15:56.358Z,99.90
2023-10-17T06:18:28.363Z,99.90
2023-10-17T06:20:58.596Z,99.90
2023-10-17T06:23:45.752Z,99.90
2023-10-17T06:26:14.801Z,99.90
2023-10-17T06:28:47.930Z,99.90
2023-10-17T06:31:16.995Z,99.90
2023-10-17T06:33:44.391Z,99.90
2023-10-17T06:36:13.712Z,99.90
2023-10-17T06:38:43.788Z,99.90
2023-10-17T06:41:12.935Z,99.90
2023-10-17T06:43:41.622Z,99.90
2023-10-17T06:46:15.836Z,99.90
2023-10-17T06:48:45.007Z,99.90
2023-10-17T06:51:32.354Z,99.90
2023-10-17T06:54:07.016Z,99.90
2023-10-17T06:56:40.542Z,99.90
2023-10-17T06:59:23.440Z,99.90
2023-10-17T07:02:04.658Z,99.90
2023-10-17T07:04:34.548Z,99.90
2023-10-17T07:07:05.236Z,99.90
2023-10-17T07:09:39.995Z,99.90
2023-10-17T07:12:14.935Z,99.90
2023-10-17T07:14:49.757Z,99.90
2023-10-17T07:17:18.944Z,99.90
2023-10-17T07:19:48.365Z,99.90
2023-10-17T07:22:17.201Z,99.90
2023-10-17T07:24:44.674Z,99.90
2023-10-17T07:27:13.962Z,99.90
2023-10-17T07:29:47.541Z,99.90
2023-10-17T07:32:16.910Z,99.90
2023-10-17T07:34:45.162Z,99.90
2023-10-17T07:37:24.315Z,99.90
2023-10-17T07:39:53.661Z,99.90
2023-10-17T07:42:31.742Z,99.90
2023-10-17T07:45:04.112Z,99.90
2023-10-17T07:47:33.314Z,99.90
2023-10-17T07:50:01.695Z,99.90
2023-10-17T07:52:32.487Z,99.90
2023-10-17T07:54:59.918Z,99.90
2023-10-17T07:57:28.122Z,99.90
2023-10-17T07:59:57.257Z,99.90
2023-10-17T08:02:25.359Z,99.90
2023-10-17T08:04:54.963Z,99.90
2023-10-17T08:07:22.303Z,99.90
2023-10-17T08:09:52.543Z,99.90
2023-10-17T08:12:23.935Z,99.90
2023-10-17T08:14:53.774Z,99.90
2023-10-17T08:17:21.276Z,99.90
2023-10-17T08:20:03.926Z,99.90
2023-10-17T08:22:51.255Z,99.90
2023-10-17T08:25:26.970Z,99.90
2023-10-17T08:27:56.105Z,99.90
2023-10-17T08:30:42.176Z,99.90
2023-10-17T08:33:13.440Z,99.90
2023-10-17T08:35:41.563Z,99.90
2023-10-17T08:38:12.114Z,99.90
2023-10-17T08:40:41.892Z,99.90
2023-10-17T08:43:13.171Z,99.90
2023-10-17T08:45:42.757Z,99.90
2023-10-17T08:48:10.939Z,99.90
2023-10-17T08:50:39.756Z,99.90
2023-10-17T08:53:15.364Z,99.90
2023-10-17T08:55:43.229Z,99.90
2023-10-17T08:58:11.443Z,99.90
2023-10-17T09:00:50.904Z,99.90
2023-10-17T09:03:22.127Z,99.90
2023-10-17T09:05:54.079Z,99.90
2023-10-17T09:08:23.367Z,99.90
2023-10-17T09:11:08.737Z,99.90
2023-10-17T09:13:39.106Z,99.90
2023-10-17T09:16:10.300Z,99.90
2023-10-17T09:18:41.945Z,99.90
2023-10-17T09:21:10.548Z,99.90
2023-10-17T09:23:40.008Z,99.90
2023-10-17T09:26:09.169Z,99.90
2023-10-17T09:28:37.207Z,99.90
2023-10-17T09:31:08.226Z,99.90
2023-10-17T09:33:38.276Z,99.90
2023-10-17T09:36:06.363Z,99.90
2023-10-17T09:38:35.736Z,99.90
2023-10-17T09:41:16.261Z,99.90
2023-10-17T09:43:47.718Z,99.90
2023-10-17T09:46:16.204Z,99.90
2023-10-17T09:48:47.656Z,99.90
2023-10-17T09:51:21.261Z,99.90
2023-10-17T09:53:55.919Z,99.90
2023-10-17T09:56:30.213Z,99.90
2023-10-17T09:59:04.110Z,99.90
2023-10-17T10:01:33.558Z,99.90
2023-10-17T10:04:03.327Z,99.90
2023-10-17T10:06:33.012Z,99.90
2023-10-17T10:09:02.642Z,99.90
2023-10-17T10:11:33.452Z,99.90
2023-10-17T10:14:04.745Z,99.90
2023-10-17T10:16:51.561Z,99.90
2023-10-17T10:19:21.009Z,99.90
2023-10-17T10:21:51.368Z,99.90
2023-10-17T10:24:20.196Z,99.90
2023-10-17T10:26:47.549Z,99.90
2023-10-17T10:29:18.122Z,99.90
2023-10-17T10:31:45.627Z,99.90
2023-10-17T10:34:13.649Z,99.90
2023-10-17T10:36:41.615Z,99.90
2023-10-17T10:39:12.356Z,99.90
2023-10-17T10:41:54.808Z,99.90
2023-10-17T10:44:22.182Z,99.90
2023-10-17T10:46:49.717Z,99.90
2023-10-17T10:49:17.201Z,99.90
2023-10-17T10:51:47.374Z,99.90
2023-10-17T10:54:14.844Z,99.90
2023-10-17T10:56:52.783Z,99.90
2023-10-17T10:59:22.753Z,99.90
2023-10-17T11:01:50.469Z,99.90
2023-10-17T11:04:18.390Z,99.90
2023-10-17T11:06:46.470Z,99.90
2023-10-17T11:09:25.548Z,99.90
2023-10-17T11:11:54.978Z,99.90
2023-10-17T11:14:23.317Z,99.90
2023-10-17T11:16:51.940Z,99.90
2023-10-17T11:19:20.930Z,99.90
2023-10-17T11:21:51.495Z,99.90
2023-10-17T11:24:19.086Z,99.90
2023-10-17T11:26:47.074Z,99.90
2023-10-17T11:29:14.495Z,99.90
2023-10-17T11:31:42.818Z,99.90
2023-10-17T11:34:14.303Z,99.90
2023-10-17T11:36:47.369Z,99.90
2023-10-17T11:39:16.706Z,99.90
2023-10-17T11:41:47.951Z,99.90
2023-10-17T11:44:17.511Z,99.90
2023-10-17T11:49:53.671Z,99.90
2023-10-17T11:52:25.227Z,99.90
2023-10-17T11:54:57.178Z,99.90
2023-10-17T11:57:26.673Z,99.90
2023-10-17T11:59:56.199Z,99.90
2023-10-17T12:02:24.402Z,99.90
2023-10-17T12:04:51.957Z,99.90
2023-10-17T12:07:21.013Z,99.90
2023-10-17T12:09:48.678Z,99.90
2023-10-17T12:12:20.516Z,99.90
2023-10-17T12:14:49.098Z,99.90
2023-10-17T12:17:20.938Z,99.90
2023-10-17T12:19:48.894Z,99.90
2023-10-17T12:22:16.689Z,99.90
2023-10-17T12:24:44.525Z,99.90
2023-10-17T12:27:14.080Z,99.90
2023-10-17T12:29:42.740Z,99.90
2023-10-17T12:32:12.117Z,99.90
2023-10-17T12:34:41.661Z,99.90
2023-10-17T12:37:13.260Z,99.90
2023-10-17T12:39:44.448Z,99.90
2023-10-17T12:42:12.728Z,99.90
2023-10-17T12:44:40.654Z,99.90
2023-10-17T12:47:08.111Z,99.90
2023-10-17T12:49:35.430Z,99.90
2023-10-17T12:52:02.910Z,99.90
2023-10-17T12:54:30.628Z,99.90
2023-10-17T12:56:58.342Z,99.90
2023-10-17T12:59:25.683Z,99.90
2023-10-17T13:01:53.143Z,99.90
2023-10-17T13:04:22.139Z,99.90
2023-10-17T13:06:49.782Z,99.90
2023-10-17T13:09:17.434Z,99.90
2023-10-17T13:11:46.078Z,99.90
2023-10-17T13:14:13.490Z,99.90
2023-10-17T13:16:42.252Z,99.90
2023-10-17T13:19:17.509Z,99.90
2023-10-17T13:21:46.941Z,99.90
2023-10-17T13:24:16.020Z,99.90
2023-10-17T13:26:46.694Z,99.90
2023-10-17T13:29:14.729Z,99.90
2023-10-17T13:31:42.053Z,99.90
2023-10-17T13:34:09.475Z,99.90
2023-10-17T13:36:37.006Z,99.90
2023-10-17T13:39:07.138Z,99.90
2023-10-17T13:41:34.425Z,99.90
2023-10-17T13:44:01.936Z,99.90
2023-10-17T13:46:29.389Z,99.90
2023-10-17T13:48:59.666Z,99.90
2023-10-17T13:51:36.125Z,99.90
2023-10-17T13:54:07.255Z,99.90
2023-10-17T13:56:34.857Z,99.90
2023-10-17T13:59:02.310Z,99.90
2023-10-17T14:01:33.738Z,99.90
2023-10-17T14:04:03.308Z,99.90
2023-10-17T14:06:32.649Z,99.90
2023-10-17T14:09:02.145Z,99.90
2023-10-17T14:11:29.480Z,99.90
2023-10-17T14:13:57.021Z,99.90
2023-10-17T14:16:25.136Z,99.90
2023-10-17T14:18:54.263Z,99.90
2023-10-17T14:21:35.756Z,99.90
2023-10-17T14:24:08.866Z,99.50
2023-10-17T14:26:36.338Z,99.50
2023-10-17T14:29:04.814Z,99.50
2023-10-17T14:31:32.835Z,99.60
2023-10-17T14:34:02.368Z,99.80
2023-10-17T14:36:29.923Z,99.90
2023-10-17T14:38:59.465Z,99.90
2023-10-17T14:41:27.063Z,99.90
2023-10-17T14:43:56.111Z,99.90
2023-10-17T14:46:23.739Z,99.90
2023-10-17T14:48:51.677Z,99.90
2023-10-17T14:51:20.361Z,99.90
2023-10-17T14:53:51.634Z,99.90
2023-10-17T14:56:22.398Z,99.90
2023-10-17T14:58:51.613Z,99.90
2023-10-17T15:01:19.379Z,99.90
2023-10-17T15:03:48.200Z,99.90
2023-10-17T15:06:16.655Z,99.90
2023-10-17T15:08:45.129Z,99.90
2023-10-17T15:11:12.798Z,99.90
2023-10-17T15:13:40.396Z,99.90
2023-10-17T15:16:11.190Z,99.90
2023-10-17T15:18:39.924Z,99.90
2023-10-17T15:21:09.792Z,99.90
2023-10-17T15:23:37.922Z,99.90
2023-10-17T15:26:05.534Z,99.90
2023-10-17T15:28:33.574Z,99.90
2023-10-17T15:31:05.706Z,99.90
2023-10-17T15:33:33.772Z,99.90
2023-10-17T15:36:04.208Z,99.90
2023-10-17T15:38:32.814Z,99.90
2023-10-17T15:41:01.232Z,99.90
2023-10-17T15:43:28.905Z,99.90
2023-10-17T15:45:58.233Z,99.90
2023-10-17T15:48:28.159Z,99.90
2023-10-17T15:50:57.328Z,99.90
2023-10-17T15:53:27.115Z,99.90
2023-10-17T15:55:56.046Z,99.90
2023-10-17T15:58:25.128Z,99.90
2023-10-17T16:00:54.446Z,99.90
2023-10-17T16:03:22.317Z,99.90
2023-10-17T16:05:52.608Z,99.90
2023-10-17T16:08:21.178Z,99.90
2023-10-17T16:10:55.251Z,99.90
2023-10-17T16:13:23.913Z,99.90
2023-10-17T16:16:00.211Z,99.90
2023-10-17T16:18:28.980Z,99.90
2023-10-17T16:20:56.536Z,99.90
2023-10-17T16:23:24.228Z,99.90
2023-10-17T16:25:54.097Z,99.90
2023-10-17T16:28:21.784Z,99.90
2023-10-17T16:30:49.954Z,99.90
2023-10-17T16:33:17.682Z,99.90
2023-10-17T16:35:46.350Z,99.90
2023-10-17T16:38:16.437Z,99.90
2023-10-17T16:40:45.200Z,99.90
2023-10-17T16:43:14.247Z,99.90
2023-10-17T16:45:44.875Z,99.90
2023-10-17T16:48:12.341Z,99.90
2023-10-17T16:50:39.562Z,99.90
2023-10-17T16:53:07.022Z,99.90
2023-10-17T16:55:34.342Z,99.90
2023-10-17T16:58:01.966Z,99.90
2023-10-17T17:00:32.014Z,99.90
2023-10-17T17:02:59.746Z,99.90
2023-10-17T17:05:27.332Z,99.90
2023-10-17T17:07:54.903Z,99.90
2023-10-17T17:10:22.142Z,99.90
2023-10-17T17:12:49.988Z,99.90
2023-10-17T17:15:17.501Z,99.90
2023-10-17T17:17:44.991Z,99.90
2023-10-17T17:20:14.564Z,99.90
2023-10-17T17:22:43.750Z,99.90
2023-10-17T17:25:14.936Z,99.90
2023-10-17T17:27:44.258Z,99.90
2023-10-17T17:30:14.364Z,99.90
2023-10-17T17:32:41.871Z,99.90
2023-10-17T17:35:09.834Z,99.90
2023-10-17T17:37:37.271Z,99.90
2023-10-17T17:40:05.117Z,99.90
2023-10-17T17:42:32.625Z,99.90
2023-10-17T17:45:04.577Z,99.90
2023-10-17T17:47:32.582Z,99.90
2023-10-17T17:49:59.862Z,99.90
2023-10-17T17:52:27.310Z,99.90
2023-10-17T17:54:54.740Z,99.90
2023-10-17T17:57:22.343Z,99.90
2023-10-17T17:59:50.427Z,99.90
2023-10-17T18:02:21.044Z,99.90
2023-10-17T18:04:49.296Z,99.90
2023-10-17T18:07:18.622Z,99.90
2023-10-17T18:09:48.448Z,99.90
2023-10-17T18:12:16.461Z,99.90
2023-10-17T18:14:44.456Z,99.90
2023-10-17T18:17:14.362Z,99.90
2023-10-17T18:19:41.732Z,99.90
2023-10-17T18:22:09.168Z,99.90
2023-10-17T18:24:36.977Z,99.90
2023-10-17T18:27:05.118Z,99.90
2023-10-17T18:29:33.022Z,99.90
2023-10-17T18:32:01.917Z,99.90
2023-10-17T18:34:29.357Z,99.90
2023-10-17T18:36:57.401Z,99.90
2023-10-17T18:39:24.883Z,99.90
2023-10-17T18:41:52.773Z,99.90
2023-10-17T18:44:20.341Z,99.90
2023-10-17T18:46:48.347Z,99.90
2023-10-17T18:49:15.737Z,99.90
2023-10-17T18:51:43.244Z,99.90
2023-10-17T18:54:10.704Z,99.90
2023-10-17T18:56:38.693Z,99.90
2023-10-17T18:59:08.017Z,99.90
2023-10-17T19:01:35.503Z,99.90
2023-10-17T19:04:03.013Z,99.90
2023-10-17T19:06:30.416Z,99.90
2023-10-17T19:08:59.216Z,99.90
2023-10-17T19:11:27.418Z,99.90
2023-10-17T19:13:56.010Z,99.90
2023-10-17T19:16:23.897Z,99.90
2023-10-17T19:18:51.479Z,99.90
2023-10-17T19:21:18.836Z,99.90
2023-10-17T19:23:50.537Z,99.90
2023-10-17T19:26:20.406Z,99.90
2023-10-17T19:28:48.774Z,99.90
2023-10-17T19:31:17.294Z,99.90
2023-10-17T19:33:44.990Z,99.90
2023-10-17T19:36:12.876Z,99.90
2023-10-17T19:38:40.280Z,99.90
2023-10-17T19:41:07.585Z,99.90
2023-10-17T19:43:34.944Z,99.90
2023-10-17T19:46:02.431Z,99.90
2023-10-17T19:48:32.922Z,99.90
2023-10-17T19:51:01.125Z,99.90
2023-10-17T19:53:28.260Z,99.90
2023-10-17T19:55:55.634Z,99.90
2023-10-17T19:58:22.822Z,99.90
2023-10-17T20:00:50.124Z,99.90
2023-10-17T20:03:17.742Z,99.90
2023-10-17T20:05:46.632Z,99.90
2023-10-17T20:08:13.814Z,99.90
2023-10-17T20:10:41.136Z,99.90
2023-10-17T20:13:09.064Z,99.90
2023-10-17T20:15:38.203Z,99.90
2023-10-17T20:18:06.260Z,99.90
2023-10-17T20:20:33.995Z,99.90
2023-10-17T20:23:01.228Z,99.90
2023-10-17T20:25:28.757Z,99.90
2023-10-17T20:27:56.028Z,99.90
2023-10-17T20:30:25.581Z,99.90
2023-10-17T20:32:53.810Z,99.90
2023-10-17T20:35:21.388Z,99.90
2023-10-17T20:37:48.602Z,99.90
2023-10-17T20:40:20.304Z,99.90
2023-10-17T20:42:50.048Z,99.90
2023-10-17T20:45:18.069Z,99.90
2023-10-17T20:47:45.694Z,99.90
2023-10-17T20:50:13.058Z,99.90
2023-10-17T20:52:40.386Z,99.90
2023-10-17T20:55:08.567Z,99.90
2023-10-17T20:57:36.068Z,99.90
2023-10-17T21:00:04.647Z,99.90
2023-10-17T21:02:33.623Z,99.90
2023-10-17T21:05:00.977Z,99.90
2023-10-17T21:07:28.798Z,99.90
2023-10-17T21:09:56.107Z,99.90
2023-10-17T21:12:23.458Z,99.90
2023-10-17T21:14:51.573Z,99.90
2023-10-17T21:17:19.352Z,99.90
2023-10-17T21:19:46.633Z,99.90
2023-10-17T21:22:14.123Z,99.90
2023-10-17T21:24:41.649Z,99.90
2023-10-17T21:27:09.483Z,99.90
2023-10-17T21:29:37.168Z,99.90
2023-10-17T21:32:04.651Z,99.90
2023-10-17T21:34:32.273Z,99.90
2023-10-17T21:37:00.449Z,99.90
2023-10-17T21:39:27.779Z,99.90
2023-10-17T21:41:56.161Z,99.90
2023-10-17T21:44:23.420Z,99.90
2023-10-17T21:46:50.664Z,99.90
2023-10-17T21:49:19.232Z,99.90
2023-10-17T21:51:46.592Z,99.90
2023-10-17T21:54:14.330Z,99.90
2023-10-17T21:56:41.681Z,99.90
2023-10-17T21:59:08.920Z,99.90
2023-10-17T22:01:36.327Z,99.90
2023-10-17T22:04:04.142Z,99.90
2023-10-17T22:06:32.757Z,99.90
2023-10-17T22:09:00.760Z,99.90
2023-10-17T22:11:29.729Z,99.90
2023-10-17T22:41:44.089Z,99.90
2023-10-17T22:44:11.448Z,99.90
2023-10-17T22:46:38.614Z,99.90
2023-10-17T22:49:06.014Z,99.90
2023-10-17T22:51:33.410Z,99.90
2023-10-17T22:54:02.482Z,99.90
2023-10-17T22:56:29.809Z,99.90
2023-10-17T22:58:58.430Z,99.90
2023-10-17T23:01:25.887Z,99.90
2023-10-17T23:03:53.507Z,99.90
2023-10-17T23:06:20.804Z,99.90
2023-10-17T23:08:48.723Z,99.90
2023-10-17T23:11:16.763Z,99.90
2023-10-17T23:13:44.074Z,99.90
2023-10-17T23:16:12.229Z,99.90
2023-10-17T23:18:43.114Z,99.90
2023-10-17T23:21:10.745Z,99.90
2023-10-17T23:23:37.946Z,99.90
2023-10-17T23:26:05.419Z,99.90
2023-10-17T23:28:32.694Z,99.90
2023-10-17T23:31:01.739Z,99.90
2023-10-17T23:33:30.467Z,99.90
2023-10-17T23:35:57.847Z,99.90
2023-10-17T23:38:25.086Z,99.90
2023-10-17T23:40:52.442Z,99.90
2023-10-17T23:43:19.610Z,99.90
2023-10-17T23:45:50.553Z,99.90
2023-10-17T23:48:20.610Z,99.90
2023-10-17T23:50:48.367Z,99.90
2023-10-17T23:53:16.458Z,99.90
2023-10-17T23:55:43.699Z,99.90
2023-10-17T23:58:11.808Z,99.90
